sensor_id;sensor_type;location;lat;lon;timestamp;temperature;humidity
71206;SHT31;58935;54.498;18.544;2022-07-23T00:00:39;19.16;80.33
71206;SHT31;58935;54.498;18.544;2022-07-23T00:03:07;19.14;80.47
71206;SHT31;58935;54.498;18.544;2022-07-23T00:05:35;19.12;80.37
71206;SHT31;58935;54.498;18.544;2022-07-23T00:08:03;19.07;80.55
71206;SHT31;58935;54.498;18.544;2022-07-23T00:10:30;19.05;80.79
71206;SHT31;58935;54.498;18.544;2022-07-23T00:12:56;19.03;80.82
71206;SHT31;58935;54.498;18.544;2022-07-23T00:15:24;19.00;80.83
71206;SHT31;58935;54.498;18.544;2022-07-23T00:17:52;18.95;81.01
71206;SHT31;58935;54.498;18.544;2022-07-23T00:20:17;18.93;81.11
71206;SHT31;58935;54.498;18.544;2022-07-23T00:25:18;18.91;81.12
71206;SHT31;58935;54.498;18.544;2022-07-23T00:27:44;18.90;81.23
71206;SHT31;58935;54.498;18.544;2022-07-23T00:30:10;18.89;81.35
71206;SHT31;58935;54.498;18.544;2022-07-23T00:35:11;18.90;81.31
71206;SHT31;58935;54.498;18.544;2022-07-23T00:37:37;18.93;81.29
71206;SHT31;58935;54.498;18.544;2022-07-23T00:40:02;18.93;81.16
71206;SHT31;58935;54.498;18.544;2022-07-23T00:42:28;18.95;81.07
71206;SHT31;58935;54.498;18.544;2022-07-23T00:44:56;18.99;81.15
71206;SHT31;58935;54.498;18.544;2022-07-23T00:47:24;19.03;81.14
71206;SHT31;58935;54.498;18.544;2022-07-23T00:49:49;19.07;81.07
71206;SHT31;58935;54.498;18.544;2022-07-23T00:52:15;19.10;81.08
71206;SHT31;58935;54.498;18.544;2022-07-23T00:54:41;19.14;81.01
71206;SHT31;58935;54.498;18.544;2022-07-23T00:57:07;19.16;80.89
71206;SHT31;58935;54.498;18.544;2022-07-23T00:59:33;19.20;80.84
71206;SHT31;58935;54.498;18.544;2022-07-23T01:01:59;19.24;80.73
71206;SHT31;58935;54.498;18.544;2022-07-23T01:04:24;19.26;80.67
71206;SHT31;58935;54.498;18.544;2022-07-23T01:06:52;19.30;80.62
71206;SHT31;58935;54.498;18.544;2022-07-23T01:09:18;19.31;80.50
71206;SHT31;58935;54.498;18.544;2022-07-23T01:11:43;19.33;80.51
71206;SHT31;58935;54.498;18.544;2022-07-23T01:14:10;19.36;80.44
71206;SHT31;58935;54.498;18.544;2022-07-23T01:16:40;19.39;80.33
71206;SHT31;58935;54.498;18.544;2022-07-23T01:19:09;19.39;80.14
71206;SHT31;58935;54.498;18.544;2022-07-23T01:21:36;19.37;79.99
71206;SHT31;58935;54.498;18.544;2022-07-23T01:24:07;19.33;79.88
71206;SHT31;58935;54.498;18.544;2022-07-23T01:26:37;19.29;79.76
71206;SHT31;58935;54.498;18.544;2022-07-23T01:29:08;19.24;79.64
71206;SHT31;58935;54.498;18.544;2022-07-23T01:31:36;19.22;79.66
71206;SHT31;58935;54.498;18.544;2022-07-23T01:34:02;19.18;79.50
71206;SHT31;58935;54.498;18.544;2022-07-23T01:36:27;19.12;79.44
71206;SHT31;58935;54.498;18.544;2022-07-23T01:38:54;19.08;79.38
71206;SHT31;58935;54.498;18.544;2022-07-23T01:41:21;19.03;79.37
71206;SHT31;58935;54.498;18.544;2022-07-23T01:43:47;18.99;79.30
71206;SHT31;58935;54.498;18.544;2022-07-23T01:46:12;18.94;79.31
71206;SHT31;58935;54.498;18.544;2022-07-23T01:48:40;18.88;79.34
71206;SHT31;58935;54.498;18.544;2022-07-23T01:51:08;18.82;79.53
71206;SHT31;58935;54.498;18.544;2022-07-23T01:53:34;18.78;79.74
71206;SHT31;58935;54.498;18.544;2022-07-23T01:56:00;18.75;79.76
71206;SHT31;58935;54.498;18.544;2022-07-23T01:58:26;18.73;79.78
71206;SHT31;58935;54.498;18.544;2022-07-23T02:00:52;18.68;79.68
71206;SHT31;58935;54.498;18.544;2022-07-23T02:03:19;18.62;79.78
71206;SHT31;58935;54.498;18.544;2022-07-23T02:05:46;18.58;79.97
71206;SHT31;58935;54.498;18.544;2022-07-23T02:08:11;18.56;80.10
71206;SHT31;58935;54.498;18.544;2022-07-23T02:10:37;18.53;80.21
71206;SHT31;58935;54.498;18.544;2022-07-23T02:13:02;18.50;80.28
71206;SHT31;58935;54.498;18.544;2022-07-23T02:15:30;18.46;80.42
71206;SHT31;58935;54.498;18.544;2022-07-23T02:17:56;18.43;80.38
71206;SHT31;58935;54.498;18.544;2022-07-23T02:20:21;18.41;80.37
71206;SHT31;58935;54.498;18.544;2022-07-23T02:22:47;18.38;80.33
71206;SHT31;58935;54.498;18.544;2022-07-23T02:25:13;18.35;80.31
71206;SHT31;58935;54.498;18.544;2022-07-23T02:27:42;18.32;80.39
71206;SHT31;58935;54.498;18.544;2022-07-23T02:30:08;18.32;80.39
71206;SHT31;58935;54.498;18.544;2022-07-23T02:32:37;18.29;80.43
71206;SHT31;58935;54.498;18.544;2022-07-23T02:35:05;18.25;80.47
71206;SHT31;58935;54.498;18.544;2022-07-23T02:37:31;18.21;80.62
71206;SHT31;58935;54.498;18.544;2022-07-23T02:39:59;18.19;80.71
71206;SHT31;58935;54.498;18.544;2022-07-23T02:42:27;18.18;80.78
71206;SHT31;58935;54.498;18.544;2022-07-23T02:44:55;18.20;80.95
71206;SHT31;58935;54.498;18.544;2022-07-23T02:47:20;18.21;80.92
71206;SHT31;58935;54.498;18.544;2022-07-23T02:49:46;18.21;80.84
71206;SHT31;58935;54.498;18.544;2022-07-23T02:52:11;18.21;80.95
71206;SHT31;58935;54.498;18.544;2022-07-23T02:54:39;18.20;80.97
71206;SHT31;58935;54.498;18.544;2022-07-23T02:57:04;18.17;80.96
71206;SHT31;58935;54.498;18.544;2022-07-23T02:59:30;18.14;81.08
71206;SHT31;58935;54.498;18.544;2022-07-23T03:01:56;18.16;81.23
71206;SHT31;58935;54.498;18.544;2022-07-23T03:04:21;18.17;81.28
71206;SHT31;58935;54.498;18.544;2022-07-23T03:06:47;18.20;81.01
71206;SHT31;58935;54.498;18.544;2022-07-23T03:09:12;18.22;81.01
71206;SHT31;58935;54.498;18.544;2022-07-23T03:11:40;18.25;80.96
71206;SHT31;58935;54.498;18.544;2022-07-23T03:14:06;18.26;80.87
71206;SHT31;58935;54.498;18.544;2022-07-23T03:16:33;18.27;80.89
71206;SHT31;58935;54.498;18.544;2022-07-23T03:18:59;18.28;80.83
71206;SHT31;58935;54.498;18.544;2022-07-23T03:21:26;18.31;80.82
71206;SHT31;58935;54.498;18.544;2022-07-23T03:23:52;18.32;80.71
71206;SHT31;58935;54.498;18.544;2022-07-23T03:26:17;18.34;80.67
71206;SHT31;58935;54.498;18.544;2022-07-23T03:28:43;18.36;80.72
71206;SHT31;58935;54.498;18.544;2022-07-23T03:31:10;18.39;80.68
71206;SHT31;58935;54.498;18.544;2022-07-23T03:33:36;18.39;80.47
71206;SHT31;58935;54.498;18.544;2022-07-23T03:36:01;18.35;80.42
71206;SHT31;58935;54.498;18.544;2022-07-23T03:38:27;18.33;80.57
71206;SHT31;58935;54.498;18.544;2022-07-23T03:40:52;18.35;80.56
71206;SHT31;58935;54.498;18.544;2022-07-23T03:43:18;18.35;80.53
71206;SHT31;58935;54.498;18.544;2022-07-23T03:45:43;18.34;80.58
71206;SHT31;58935;54.498;18.544;2022-07-23T03:48:08;18.36;80.60
71206;SHT31;58935;54.498;18.544;2022-07-23T03:50:34;18.37;80.51
71206;SHT31;58935;54.498;18.544;2022-07-23T03:53:01;18.35;80.45
71206;SHT31;58935;54.498;18.544;2022-07-23T03:55:26;18.31;80.52
71206;SHT31;58935;54.498;18.544;2022-07-23T03:57:52;18.33;80.62
71206;SHT31;58935;54.498;18.544;2022-07-23T04:00:20;18.36;80.63
71206;SHT31;58935;54.498;18.544;2022-07-23T04:02:45;18.36;80.46
71206;SHT31;58935;54.498;18.544;2022-07-23T04:05:11;18.37;80.36
71206;SHT31;58935;54.498;18.544;2022-07-23T04:07:36;18.35;80.38
71206;SHT31;58935;54.498;18.544;2022-07-23T04:10:02;18.34;80.35
71206;SHT31;58935;54.498;18.544;2022-07-23T04:12:30;18.34;80.35
71206;SHT31;58935;54.498;18.544;2022-07-23T04:14:55;18.33;80.31
71206;SHT31;58935;54.498;18.544;2022-07-23T04:17:21;18.33;80.26
71206;SHT31;58935;54.498;18.544;2022-07-23T04:19:46;18.34;80.14
71206;SHT31;58935;54.498;18.544;2022-07-23T04:22:11;18.36;80.06
71206;SHT31;58935;54.498;18.544;2022-07-23T04:24:41;18.40;79.99
71206;SHT31;58935;54.498;18.544;2022-07-23T04:27:07;18.43;79.96
71206;SHT31;58935;54.498;18.544;2022-07-23T04:29:32;18.49;79.82
71206;SHT31;58935;54.498;18.544;2022-07-23T04:31:58;18.53;79.80
71206;SHT31;58935;54.498;18.544;2022-07-23T04:34:23;18.60;79.52
71206;SHT31;58935;54.498;18.544;2022-07-23T04:36:51;18.65;79.27
71206;SHT31;58935;54.498;18.544;2022-07-23T04:39:18;18.69;79.22
71206;SHT31;58935;54.498;18.544;2022-07-23T04:41:44;18.70;78.99
71206;SHT31;58935;54.498;18.544;2022-07-23T04:44:10;18.70;78.74
71206;SHT31;58935;54.498;18.544;2022-07-23T04:46:37;18.71;78.68
71206;SHT31;58935;54.498;18.544;2022-07-23T04:49:03;18.73;78.71
71206;SHT31;58935;54.498;18.544;2022-07-23T04:51:28;18.75;78.71
71206;SHT31;58935;54.498;18.544;2022-07-23T04:53:54;18.78;78.58
71206;SHT31;58935;54.498;18.544;2022-07-23T04:56:20;18.80;78.33
71206;SHT31;58935;54.498;18.544;2022-07-23T04:58:46;18.83;78.24
71206;SHT31;58935;54.498;18.544;2022-07-23T05:01:12;18.85;78.44
71206;SHT31;58935;54.498;18.544;2022-07-23T05:03:38;18.90;78.41
71206;SHT31;58935;54.498;18.544;2022-07-23T05:06:03;18.93;78.21
71206;SHT31;58935;54.498;18.544;2022-07-23T05:08:29;18.95;78.06
71206;SHT31;58935;54.498;18.544;2022-07-23T05:10:57;18.95;78.03
71206;SHT31;58935;54.498;18.544;2022-07-23T05:13:27;18.99;77.89
71206;SHT31;58935;54.498;18.544;2022-07-23T05:15:52;19.00;77.87
71206;SHT31;58935;54.498;18.544;2022-07-23T05:18:18;18.99;77.88
71206;SHT31;58935;54.498;18.544;2022-07-23T05:20:43;18.98;77.56
71206;SHT31;58935;54.498;18.544;2022-07-23T05:23:08;18.97;77.58
71206;SHT31;58935;54.498;18.544;2022-07-23T05:25:35;18.98;77.48
71206;SHT31;58935;54.498;18.544;2022-07-23T05:28:01;19.02;77.56
71206;SHT31;58935;54.498;18.544;2022-07-23T05:30:29;19.05;77.39
71206;SHT31;58935;54.498;18.544;2022-07-23T05:32:54;19.06;76.80
71206;SHT31;58935;54.498;18.544;2022-07-23T05:35:22;19.08;76.81
71206;SHT31;58935;54.498;18.544;2022-07-23T05:37:48;19.08;76.55
71206;SHT31;58935;54.498;18.544;2022-07-23T05:40:20;19.10;76.36
71206;SHT31;58935;54.498;18.544;2022-07-23T05:42:45;19.12;76.02
71206;SHT31;58935;54.498;18.544;2022-07-23T05:45:15;19.17;75.99
71206;SHT31;58935;54.498;18.544;2022-07-23T05:47:43;19.24;75.96
71206;SHT31;58935;54.498;18.544;2022-07-23T05:50:14;19.29;75.65
71206;SHT31;58935;54.498;18.544;2022-07-23T05:52:41;19.35;75.67
71206;SHT31;58935;54.498;18.544;2022-07-23T05:55:10;19.43;75.64
71206;SHT31;58935;54.498;18.544;2022-07-23T05:57:37;19.52;75.37
71206;SHT31;58935;54.498;18.544;2022-07-23T06:00:08;19.63;75.05
71206;SHT31;58935;54.498;18.544;2022-07-23T06:02:39;19.71;74.40
71206;SHT31;58935;54.498;18.544;2022-07-23T06:05:09;19.78;74.52
71206;SHT31;58935;54.498;18.544;2022-07-23T06:07:35;19.83;73.66
71206;SHT31;58935;54.498;18.544;2022-07-23T06:10:05;19.83;72.66
71206;SHT31;58935;54.498;18.544;2022-07-23T06:12:31;19.84;72.30
71206;SHT31;58935;54.498;18.544;2022-07-23T06:14:57;19.86;72.18
71206;SHT31;58935;54.498;18.544;2022-07-23T06:17:25;19.89;71.56
71206;SHT31;58935;54.498;18.544;2022-07-23T06:19:52;19.91;71.38
71206;SHT31;58935;54.498;18.544;2022-07-23T06:22:20;19.90;71.02
71206;SHT31;58935;54.498;18.544;2022-07-23T06:24:48;19.90;71.06
71206;SHT31;58935;54.498;18.544;2022-07-23T06:27:16;19.94;71.17
71206;SHT31;58935;54.498;18.544;2022-07-23T06:29:41;19.99;71.12
71206;SHT31;58935;54.498;18.544;2022-07-23T06:32:09;20.05;70.74
71206;SHT31;58935;54.498;18.544;2022-07-23T06:34:36;20.11;70.45
71206;SHT31;58935;54.498;18.544;2022-07-23T06:37:04;20.18;70.58
71206;SHT31;58935;54.498;18.544;2022-07-23T06:39:30;20.26;70.48
71206;SHT31;58935;54.498;18.544;2022-07-23T06:41:55;20.32;70.51
71206;SHT31;58935;54.498;18.544;2022-07-23T06:44:21;20.40;70.25
71206;SHT31;58935;54.498;18.544;2022-07-23T06:46:47;20.47;70.11
71206;SHT31;58935;54.498;18.544;2022-07-23T06:49:13;20.54;69.23
71206;SHT31;58935;54.498;18.544;2022-07-23T06:51:40;20.57;69.34
71206;SHT31;58935;54.498;18.544;2022-07-23T06:54:06;20.64;69.33
71206;SHT31;58935;54.498;18.544;2022-07-23T06:56:36;20.70;69.02
71206;SHT31;58935;54.498;18.544;2022-07-23T06:59:02;20.75;68.38
71206;SHT31;58935;54.498;18.544;2022-07-23T07:01:28;20.76;68.22
71206;SHT31;58935;54.498;18.544;2022-07-23T07:03:54;20.79;68.37
71206;SHT31;58935;54.498;18.544;2022-07-23T07:06:20;20.83;68.17
71206;SHT31;58935;54.498;18.544;2022-07-23T07:08:45;20.90;68.28
71206;SHT31;58935;54.498;18.544;2022-07-23T07:11:11;20.97;68.38
71206;SHT31;58935;54.498;18.544;2022-07-23T07:13:37;21.07;68.27
71206;SHT31;58935;54.498;18.544;2022-07-23T07:16:03;21.16;67.87
71206;SHT31;58935;54.498;18.544;2022-07-23T07:18:29;21.21;67.79
71206;SHT31;58935;54.498;18.544;2022-07-23T07:20:56;21.28;67.84
71206;SHT31;58935;54.498;18.544;2022-07-23T07:23:22;21.37;67.59
71206;SHT31;58935;54.498;18.544;2022-07-23T07:25:48;21.50;67.33
71206;SHT31;58935;54.498;18.544;2022-07-23T07:28:14;21.61;67.08
71206;SHT31;58935;54.498;18.544;2022-07-23T07:30:40;21.70;66.53
71206;SHT31;58935;54.498;18.544;2022-07-23T07:33:06;21.82;66.69
71206;SHT31;58935;54.498;18.544;2022-07-23T07:35:31;22.00;66.37
71206;SHT31;58935;54.498;18.544;2022-07-23T07:37:57;22.15;65.62
71206;SHT31;58935;54.498;18.544;2022-07-23T07:40:25;22.28;64.60
71206;SHT31;58935;54.498;18.544;2022-07-23T07:42:51;22.40;63.97
71206;SHT31;58935;54.498;18.544;2022-07-23T07:45:19;22.50;63.71
71206;SHT31;58935;54.498;18.544;2022-07-23T07:47:46;22.58;63.24
71206;SHT31;58935;54.498;18.544;2022-07-23T07:50:12;22.66;62.97
71206;SHT31;58935;54.498;18.544;2022-07-23T07:52:38;22.74;62.87
71206;SHT31;58935;54.498;18.544;2022-07-23T07:55:05;22.82;62.80
71206;SHT31;58935;54.498;18.544;2022-07-23T07:57:33;22.90;62.61
71206;SHT31;58935;54.498;18.544;2022-07-23T07:59:59;22.96;62.48
71206;SHT31;58935;54.498;18.544;2022-07-23T08:02:25;23.07;62.56
71206;SHT31;58935;54.498;18.544;2022-07-23T08:04:51;23.03;62.79
71206;SHT31;58935;54.498;18.544;2022-07-23T08:07:16;22.90;63.24
71206;SHT31;58935;54.498;18.544;2022-07-23T08:09:43;22.77;63.31
71206;SHT31;58935;54.498;18.544;2022-07-23T08:12:08;22.53;63.46
71206;SHT31;58935;54.498;18.544;2022-07-23T08:14:34;22.26;63.91
71206;SHT31;58935;54.498;18.544;2022-07-23T08:16:59;22.08;64.63
71206;SHT31;58935;54.498;18.544;2022-07-23T08:19:24;21.96;64.33
71206;SHT31;58935;54.498;18.544;2022-07-23T08:21:53;21.83;64.80
71206;SHT31;58935;54.498;18.544;2022-07-23T08:24:18;21.75;65.30
71206;SHT31;58935;54.498;18.544;2022-07-23T08:26:44;21.75;65.64
71206;SHT31;58935;54.498;18.544;2022-07-23T08:29:10;21.70;65.96
71206;SHT31;58935;54.498;18.544;2022-07-23T08:31:35;21.63;66.48
71206;SHT31;58935;54.498;18.544;2022-07-23T08:34:05;21.61;66.54
71206;SHT31;58935;54.498;18.544;2022-07-23T08:36:37;21.63;66.89
71206;SHT31;58935;54.498;18.544;2022-07-23T08:39:03;21.69;66.86
71206;SHT31;58935;54.498;18.544;2022-07-23T08:41:29;21.70;67.03
71206;SHT31;58935;54.498;18.544;2022-07-23T08:43:57;21.74;67.29
71206;SHT31;58935;54.498;18.544;2022-07-23T08:46:26;21.82;67.20
71206;SHT31;58935;54.498;18.544;2022-07-23T08:48:58;21.93;67.13
71206;SHT31;58935;54.498;18.544;2022-07-23T08:51:29;21.99;66.56
71206;SHT31;58935;54.498;18.544;2022-07-23T08:53:57;21.91;65.62
71206;SHT31;58935;54.498;18.544;2022-07-23T08:56:23;21.89;66.62
71206;SHT31;58935;54.498;18.544;2022-07-23T08:58:48;21.91;66.52
71206;SHT31;58935;54.498;18.544;2022-07-23T09:01:14;21.95;67.01
71206;SHT31;58935;54.498;18.544;2022-07-23T09:03:39;21.96;66.64
71206;SHT31;58935;54.498;18.544;2022-07-23T09:06:05;21.94;66.86
71206;SHT31;58935;54.498;18.544;2022-07-23T09:11:02;21.80;66.83
71206;SHT31;58935;54.498;18.544;2022-07-23T09:13:35;21.73;67.35
71206;SHT31;58935;54.498;18.544;2022-07-23T09:16:11;21.69;67.45
71206;SHT31;58935;54.498;18.544;2022-07-23T09:18:46;21.69;67.44
71206;SHT31;58935;54.498;18.544;2022-07-23T09:21:21;21.75;67.48
71206;SHT31;58935;54.498;18.544;2022-07-23T09:23:55;21.87;67.81
71206;SHT31;58935;54.498;18.544;2022-07-23T09:26:29;22.05;67.04
71206;SHT31;58935;54.498;18.544;2022-07-23T09:29:03;22.18;66.90
71206;SHT31;58935;54.498;18.544;2022-07-23T09:34:10;22.39;65.98
71206;SHT31;58935;54.498;18.544;2022-07-23T09:36:56;22.41;65.87
71206;SHT31;58935;54.498;18.544;2022-07-23T09:39:34;22.52;65.79
71206;SHT31;58935;54.498;18.544;2022-07-23T09:44:40;22.48;65.06
71206;SHT31;58935;54.498;18.544;2022-07-23T09:47:09;22.41;65.63
71206;SHT31;58935;54.498;18.544;2022-07-23T09:49:35;22.35;65.86
71206;SHT31;58935;54.498;18.544;2022-07-23T09:52:01;22.22;65.71
71206;SHT31;58935;54.498;18.544;2022-07-23T09:54:29;22.10;66.14
71206;SHT31;58935;54.498;18.544;2022-07-23T09:57:04;21.93;66.45
71206;SHT31;58935;54.498;18.544;2022-07-23T09:59:36;21.84;66.92
71206;SHT31;58935;54.498;18.544;2022-07-23T10:02:03;21.82;67.33
71206;SHT31;58935;54.498;18.544;2022-07-23T10:04:36;21.84;67.19
71206;SHT31;58935;54.498;18.544;2022-07-23T10:07:03;21.86;66.97
71206;SHT31;58935;54.498;18.544;2022-07-23T10:09:32;21.88;66.64
71206;SHT31;58935;54.498;18.544;2022-07-23T10:12:05;21.86;66.43
71206;SHT31;58935;54.498;18.544;2022-07-23T10:14:41;21.84;66.75
71206;SHT31;58935;54.498;18.544;2022-07-23T10:17:08;21.84;66.84
71206;SHT31;58935;54.498;18.544;2022-07-23T10:19:34;21.87;66.94
71206;SHT31;58935;54.498;18.544;2022-07-23T10:22:01;21.88;66.82
71206;SHT31;58935;54.498;18.544;2022-07-23T10:32:35;21.63;67.24
71206;SHT31;58935;54.498;18.544;2022-07-23T10:37:49;21.59;68.51
71206;SHT31;58935;54.498;18.544;2022-07-23T10:40:21;21.67;69.31
71206;SHT31;58935;54.498;18.544;2022-07-23T10:42:49;21.81;69.10
71206;SHT31;58935;54.498;18.544;2022-07-23T10:48:08;22.06;68.60
71206;SHT31;58935;54.498;18.544;2022-07-23T10:51:05;22.18;68.62
71206;SHT31;58935;54.498;18.544;2022-07-23T10:56:13;22.39;67.72
71206;SHT31;58935;54.498;18.544;2022-07-23T11:03:58;22.86;66.74
71206;SHT31;58935;54.498;18.544;2022-07-23T11:06:24;22.96;66.58
71206;SHT31;58935;54.498;18.544;2022-07-23T11:11:47;22.92;65.07
71206;SHT31;58935;54.498;18.544;2022-07-23T11:14:12;22.80;65.00
71206;SHT31;58935;54.498;18.544;2022-07-23T11:16:46;22.68;65.07
71206;SHT31;58935;54.498;18.544;2022-07-23T11:19:13;22.57;65.46
71206;SHT31;58935;54.498;18.544;2022-07-23T11:21:40;22.47;65.70
71206;SHT31;58935;54.498;18.544;2022-07-23T11:32:06;22.35;66.79
71206;SHT31;58935;54.498;18.544;2022-07-23T11:34:45;22.37;67.16
71206;SHT31;58935;54.498;18.544;2022-07-23T11:39:47;22.24;67.09
71206;SHT31;58935;54.498;18.544;2022-07-23T11:42:14;22.15;67.30
71206;SHT31;58935;54.498;18.544;2022-07-23T11:44:46;22.09;67.73
71206;SHT31;58935;54.498;18.544;2022-07-23T11:47:13;22.06;68.17
71206;SHT31;58935;54.498;18.544;2022-07-23T11:49:38;22.01;68.22
71206;SHT31;58935;54.498;18.544;2022-07-23T11:52:17;21.95;68.99
71206;SHT31;58935;54.498;18.544;2022-07-23T11:57:17;22.00;69.59
71206;SHT31;58935;54.498;18.544;2022-07-23T11:59:52;22.00;69.99
71206;SHT31;58935;54.498;18.544;2022-07-23T12:02:25;22.02;70.80
71206;SHT31;58935;54.498;18.544;2022-07-23T12:04:53;22.00;71.11
71206;SHT31;58935;54.498;18.544;2022-07-23T12:09:54;22.13;71.96
71206;SHT31;58935;54.498;18.544;2022-07-23T12:12:21;22.19;71.72
71206;SHT31;58935;54.498;18.544;2022-07-23T12:14:51;22.20;71.74
71206;SHT31;58935;54.498;18.544;2022-07-23T12:17:21;22.21;71.97
71206;SHT31;58935;54.498;18.544;2022-07-23T12:19:58;22.16;72.19
71206;SHT31;58935;54.498;18.544;2022-07-23T12:22:26;22.10;71.79
71206;SHT31;58935;54.498;18.544;2022-07-23T12:25:02;22.03;71.93
71206;SHT31;58935;54.498;18.544;2022-07-23T12:27:31;21.98;71.97
71206;SHT31;58935;54.498;18.544;2022-07-23T12:29:57;21.88;71.91
71206;SHT31;58935;54.498;18.544;2022-07-23T12:32:24;21.79;72.41
71206;SHT31;58935;54.498;18.544;2022-07-23T12:37:32;21.67;73.45
71206;SHT31;58935;54.498;18.544;2022-07-23T12:45:09;21.69;73.69
71206;SHT31;58935;54.498;18.544;2022-07-23T12:50:30;21.83;74.44
71206;SHT31;58935;54.498;18.544;2022-07-23T12:53:09;21.93;74.82
71206;SHT31;58935;54.498;18.544;2022-07-23T12:55:39;22.05;74.79
71206;SHT31;58935;54.498;18.544;2022-07-23T12:58:08;22.22;74.25
71206;SHT31;58935;54.498;18.544;2022-07-23T13:03:20;22.62;73.84
71206;SHT31;58935;54.498;18.544;2022-07-23T13:05:50;22.75;73.30
71206;SHT31;58935;54.498;18.544;2022-07-23T13:08:16;22.98;73.52
71206;SHT31;58935;54.498;18.544;2022-07-23T13:10:41;23.17;71.64
71206;SHT31;58935;54.498;18.544;2022-07-23T13:15:35;23.39;70.12
71206;SHT31;58935;54.498;18.544;2022-07-23T13:18:03;23.50;69.66
71206;SHT31;58935;54.498;18.544;2022-07-23T13:20:29;23.58;69.27
71206;SHT31;58935;54.498;18.544;2022-07-23T13:22:58;23.65;68.69
71206;SHT31;58935;54.498;18.544;2022-07-23T13:25:25;23.73;69.52
71206;SHT31;58935;54.498;18.544;2022-07-23T13:27:53;23.83;69.29
71206;SHT31;58935;54.498;18.544;2022-07-23T13:30:21;23.89;69.04
71206;SHT31;58935;54.498;18.544;2022-07-23T13:32:47;24.02;69.06
71206;SHT31;58935;54.498;18.544;2022-07-23T13:35:13;24.18;68.67
71206;SHT31;58935;54.498;18.544;2022-07-23T13:37:39;24.21;66.52
71206;SHT31;58935;54.498;18.544;2022-07-23T13:40:05;24.25;66.50
71206;SHT31;58935;54.498;18.544;2022-07-23T13:42:32;24.33;65.41
71206;SHT31;58935;54.498;18.544;2022-07-23T13:45:00;24.37;64.65
71206;SHT31;58935;54.498;18.544;2022-07-23T13:47:25;24.36;64.28
71206;SHT31;58935;54.498;18.544;2022-07-23T13:49:53;24.29;64.77
71206;SHT31;58935;54.498;18.544;2022-07-23T13:52:21;24.28;65.21
71206;SHT31;58935;54.498;18.544;2022-07-23T13:54:49;24.33;65.09
71206;SHT31;58935;54.498;18.544;2022-07-23T13:57:15;24.44;64.79
71206;SHT31;58935;54.498;18.544;2022-07-23T13:59:41;24.55;64.42
71206;SHT31;58935;54.498;18.544;2022-07-23T14:02:07;24.54;64.39
71206;SHT31;58935;54.498;18.544;2022-07-23T14:04:33;24.53;63.71
71206;SHT31;58935;54.498;18.544;2022-07-23T14:07:01;24.59;64.27
71206;SHT31;58935;54.498;18.544;2022-07-23T14:09:29;24.67;63.19
71206;SHT31;58935;54.498;18.544;2022-07-23T14:11:55;24.78;62.99
71206;SHT31;58935;54.498;18.544;2022-07-23T14:14:20;24.82;63.06
71206;SHT31;58935;54.498;18.544;2022-07-23T14:16:46;24.77;61.50
71206;SHT31;58935;54.498;18.544;2022-07-23T14:19:11;24.70;61.04
71206;SHT31;58935;54.498;18.544;2022-07-23T14:21:37;24.69;61.40
71206;SHT31;58935;54.498;18.544;2022-07-23T14:24:03;24.69;61.77
71206;SHT31;58935;54.498;18.544;2022-07-23T14:26:28;24.66;61.58
71206;SHT31;58935;54.498;18.544;2022-07-23T14:28:54;24.59;61.14
71206;SHT31;58935;54.498;18.544;2022-07-23T14:31:20;24.43;60.59
71206;SHT31;58935;54.498;18.544;2022-07-23T14:33:47;24.33;60.95
71206;SHT31;58935;54.498;18.544;2022-07-23T14:36:13;24.33;61.13
71206;SHT31;58935;54.498;18.544;2022-07-23T14:38:39;24.37;61.11
71206;SHT31;58935;54.498;18.544;2022-07-23T14:41:04;24.37;61.59
71206;SHT31;58935;54.498;18.544;2022-07-23T14:43:33;24.47;61.64
71206;SHT31;58935;54.498;18.544;2022-07-23T14:45:59;24.57;61.43
71206;SHT31;58935;54.498;18.544;2022-07-23T14:48:25;24.63;60.91
71206;SHT31;58935;54.498;18.544;2022-07-23T14:50:50;24.60;59.46
71206;SHT31;58935;54.498;18.544;2022-07-23T14:53:16;24.53;59.22
71206;SHT31;58935;54.498;18.544;2022-07-23T14:55:42;24.47;59.39
71206;SHT31;58935;54.498;18.544;2022-07-23T14:58:07;24.48;60.06
71206;SHT31;58935;54.498;18.544;2022-07-23T15:00:33;24.44;60.17
71206;SHT31;58935;54.498;18.544;2022-07-23T15:02:59;24.40;60.38
71206;SHT31;58935;54.498;18.544;2022-07-23T15:05:25;24.42;60.38
71206;SHT31;58935;54.498;18.544;2022-07-23T15:07:50;24.45;60.02
71206;SHT31;58935;54.498;18.544;2022-07-23T15:10:16;24.46;59.66
71206;SHT31;58935;54.498;18.544;2022-07-23T15:12:44;24.46;59.57
71206;SHT31;58935;54.498;18.544;2022-07-23T15:15:09;24.38;59.01
71206;SHT31;58935;54.498;18.544;2022-07-23T15:17:35;24.29;59.67
71206;SHT31;58935;54.498;18.544;2022-07-23T15:20:01;24.31;59.72
71206;SHT31;58935;54.498;18.544;2022-07-23T15:22:26;24.31;59.22
71206;SHT31;58935;54.498;18.544;2022-07-23T15:24:53;24.29;59.32
71206;SHT31;58935;54.498;18.544;2022-07-23T15:27:19;24.27;59.75
71206;SHT31;58935;54.498;18.544;2022-07-23T15:29:47;24.24;59.50
71206;SHT31;58935;54.498;18.544;2022-07-23T15:32:12;24.19;59.11
71206;SHT31;58935;54.498;18.544;2022-07-23T15:34:38;24.13;59.48
71206;SHT31;58935;54.498;18.544;2022-07-23T15:37:04;24.11;59.92
71206;SHT31;58935;54.498;18.544;2022-07-23T15:39:31;24.06;59.97
71206;SHT31;58935;54.498;18.544;2022-07-23T15:42:00;23.96;60.57
71206;SHT31;58935;54.498;18.544;2022-07-23T15:44:27;23.80;61.00
71206;SHT31;58935;54.498;18.544;2022-07-23T15:46:53;23.56;61.93
71206;SHT31;58935;54.498;18.544;2022-07-23T15:49:24;23.29;62.54
71206;SHT31;58935;54.498;18.544;2022-07-23T15:51:51;23.04;63.09
71206;SHT31;58935;54.498;18.544;2022-07-23T15:54:17;22.91;63.46
71206;SHT31;58935;54.498;18.544;2022-07-23T15:56:42;22.89;63.87
71206;SHT31;58935;54.498;18.544;2022-07-23T15:59:08;22.99;63.76
71206;SHT31;58935;54.498;18.544;2022-07-23T16:01:35;23.15;63.21
71206;SHT31;58935;54.498;18.544;2022-07-23T16:04:01;23.25;62.96
71206;SHT31;58935;54.498;18.544;2022-07-23T16:06:26;23.30;62.62
71206;SHT31;58935;54.498;18.544;2022-07-23T16:09:00;23.30;62.22
71206;SHT31;58935;54.498;18.544;2022-07-23T16:11:28;23.25;62.27
71206;SHT31;58935;54.498;18.544;2022-07-23T16:13:55;23.22;62.30
71206;SHT31;58935;54.498;18.544;2022-07-23T16:16:23;23.15;61.83
71206;SHT31;58935;54.498;18.544;2022-07-23T16:18:51;23.05;61.93
71206;SHT31;58935;54.498;18.544;2022-07-23T16:21:18;23.07;61.72
71206;SHT31;58935;54.498;18.544;2022-07-23T16:23:48;23.09;61.25